| time (UTC) | temp C | wind direction | speed KPH | gust KPH | rain 1hr cm | rain 24hr cm | rain mn cm | humidity % | barometer mb |
| 20260510220058 | 18 | 0 | 0.0 | 0.0 | 0.38 | 0.71 | 0.71 | 90 | 1012.5 |
| 20260510214603 | 18 | 0 | 0.0 | 0.0 | 0.69 | 0.71 | 0.71 | 89 | 1012.1 |
| 20260510213111 | 17 | 0 | 0.0 | 0.0 | 0.69 | 0.71 | 0.71 | 87 | 1012.2 |
| 20260510211603 | 18 | 39 | 3.2 | 12.9 | 0.64 | 0.66 | 0.66 | 81 | 1012.2 |
| 20260510210058 | 20 | 340 | 4.8 | 14.5 | 0.30 | 0.33 | 0.33 | 74 | 1011.9 |
| 20260510204600 | 24 | 360 | 3.2 | 9.7 | 0.00 | 0.03 | 0.03 | 53 | 1011.1 |
| 20260510203056 | 25 | 0 | 0.0 | 4.8 | 0.00 | 0.03 | 0.03 | 50 | 1010.9 |
| 20260510201609 | 25 | 0 | 0.0 | 6.4 | 0.00 | 0.03 | 0.03 | 49 | 1011.1 |
| 20260510200059 | 25 | 0 | 0.0 | 11.3 | 0.00 | 0.03 | 0.03 | 48 | 1011.3 |
| 20260510194557 | 25 | 250 | 0.0 | 11.3 | 0.00 | 0.03 | 0.03 | 48 | 1011.6 |
| 20260510193058 | 25 | 0 | 1.6 | 6.4 | 0.00 | 0.03 | 0.03 | 51 | 1011.6 |
| 20260510191559 | 24 | 0 | 0.0 | 4.8 | 0.00 | 0.03 | 0.03 | 53 | 1012.0 |
| 20260510190103 | 24 | 0 | 0.0 | 3.2 | 0.00 | 0.03 | 0.03 | 51 | 1012.0 |
| 20260510184602 | 24 | 0 | 1.6 | 11.3 | 0.00 | 0.03 | 0.03 | 51 | 1012.1 |
| 20260510183059 | 25 | 0 | 0.0 | 8.0 | 0.00 | 0.03 | 0.03 | 50 | 1011.9 |
| 20260510181607 | 25 | 0 | 1.6 | 14.5 | 0.00 | 0.03 | 0.03 | 51 | 1012.0 |
| 20260510180107 | 25 | 0 | 0.0 | 9.7 | 0.00 | 0.03 | 0.03 | 52 | 1012.1 |
| 20260510174558 | 24 | 0 | 1.6 | 11.3 | 0.00 | 0.03 | 0.03 | 54 | 1012.0 |
| 20260510173054 | 24 | 0 | 1.6 | 14.5 | 0.00 | 0.03 | 0.03 | 56 | 1012.1 |
| 20260510171600 | 23 | 324 | 4.8 | 17.7 | 0.00 | 0.03 | 0.03 | 57 | 1012.2 |
| 20260510170122 | 22 | 0 | 1.6 | 17.7 | 0.00 | 0.03 | 0.03 | 61 | 1012.2 |
| 20260510164605 | 22 | 0 | 0.0 | 11.3 | 0.00 | 0.03 | 0.03 | 61 | 1012.2 |
| 20260510163059 | 22 | 0 | 0.0 | 9.7 | 0.00 | 0.03 | 0.03 | 62 | 1012.3 |
| 20260510161555 | 21 | 0 | 1.6 | 11.3 | 0.00 | 0.03 | 0.03 | 68 | 1012.3 |
| 20260510160054 | 20 | 281 | 1.6 | 8.0 | 0.00 | 0.03 | 0.03 | 67 | 1012.5 |
| 20260510154554 | 20 | 0 | 1.6 | 11.3 | 0.00 | 0.03 | 0.03 | 70 | 1012.5 |
| 20260510153056 | 20 | 0 | 0.0 | 8.0 | 0.00 | 0.03 | 0.03 | 74 | 1012.5 |
| 20260510151557 | 18 | 0 | 0.0 | 3.2 | 0.00 | 0.03 | 0.03 | 76 | 1012.5 |
| 20260510150055 | 17 | 348 | 1.6 | 4.8 | 0.00 | 0.03 | 0.03 | 82 | 1012.5 |
| 20260510144555 | 16 | 0 | 0.0 | 6.4 | 0.00 | 0.03 | 0.03 | 85 | 1012.4 |
| 20260510143100 | 15 | 0 | 0.0 | 4.8 | 0.00 | 0.03 | 0.03 | 90 | 1012.8 |
| 20260510141557 | 14 | 0 | 0.0 | 6.4 | 0.00 | 0.03 | 0.03 | 95 | 1012.7 |
| 20260510140056 | 13 | 0 | 0.0 | 3.2 | 0.00 | 0.03 | 0.03 | 95 | 1012.8 |
| 20260510134557 | 13 | 0 | 0.0 | 1.6 | 0.00 | 0.03 | 0.03 | 95 | 1012.5 |
| 20260510133055 | 12 | 0 | 0.0 | 3.2 | 0.00 | 0.03 | 0.03 | 95 | 1012.7 |
| 20260510131552 | 12 | 194 | 1.6 | 6.4 | 0.00 | 0.03 | 0.03 | 95 | 1012.8 |
| 20260510130058 | 12 | 0 | 0.0 | 3.2 | 0.00 | 0.03 | 0.03 | 95 | 1012.4 |
| 20260510124609 | 12 | 0 | 0.0 | 0.0 | 0.00 | 0.03 | 0.03 | 95 | 1012.1 |
| 20260510123058 | 11 | 0 | 0.0 | 3.2 | 0.00 | 0.03 | 0.03 | 95 | 1012.2 |
| 20260510121553 | 11 | 19 | 0.0 | 4.8 | 0.00 | 0.03 | 0.03 | 95 | 1012.1 |
| 20260510120054 | 11 | 18 | 0.0 | 4.8 | 0.00 | 0.03 | 0.03 | 95 | 1012.1 |
| 20260510114556 | 11 | 0 | 1.6 | 6.4 | 0.00 | 0.03 | 0.03 | 95 | 1011.9 |
| 20260510113054 | 11 | 15 | 0.0 | 6.4 | 0.00 | 0.03 | 0.03 | 95 | 1011.7 |
| 20260510111553 | 10 | 0 | 0.0 | 6.4 | 0.00 | 0.03 | 0.03 | 95 | 1011.4 |
| 20260510110054 | 10 | 5 | 1.6 | 6.4 | 0.00 | 0.03 | 0.03 | 95 | 1011.5 |
| 20260510104557 | 10 | 111 | 1.6 | 11.3 | 0.00 | 0.03 | 0.03 | 95 | 1011.0 |
| 20260510103056 | 10 | 105 | 0.0 | 4.8 | 0.00 | 0.03 | 0.03 | 95 | 1011.0 |
| 20260510101554 | 10 | 0 | 0.0 | 4.8 | 0.00 | 0.03 | 0.03 | 95 | 1011.3 |
| 20260510100100 | 10 | 12 | 1.6 | 4.8 | 0.00 | 0.03 | 0.03 | 95 | 1011.3 |
| 20260510094553 | 10 | 0 | 0.0 | 9.7 | 0.00 | 0.03 | 0.03 | 94 | 1011.1 |
| 20260510093101 | 9 | 355 | 3.2 | 8.0 | 0.00 | 0.03 | 0.03 | 95 | 1011.0 |
| 20260510091553 | 9 | 10 | 3.2 | 12.9 | 0.00 | 0.03 | 0.03 | 94 | 1010.8 |
| 20260510090114 | 9 | 55 | 1.6 | 4.8 | 0.03 | 0.03 | 0.03 | 94 | 1010.3 |
| 20260510084552 | 9 | 0 | 0.0 | 3.2 | 0.03 | 0.03 | 0.03 | 94 | 1010.4 |
| 20260510083100 | 9 | 0 | 0.0 | 1.6 | 0.03 | 0.03 | 0.03 | 94 | 1010.4 |
| 20260510081554 | 8 | 0 | 0.0 | 4.8 | 0.03 | 0.03 | 0.03 | 94 | 1010.3 |
| 20260510080052 | 8 | 0 | 1.6 | 4.8 | 0.00 | 0.00 | 0.00 | 94 | 1010.2 |
| 20260510074552 | 8 | 0 | 0.0 | 4.8 | 0.00 | 0.00 | 0.00 | 94 | 1010.0 |
| 20260510073055 | 8 | 16 | 1.6 | 6.4 | 0.00 | 0.00 | 0.00 | 94 | 1010.0 |
| 20260510071553 | 8 | 0 | 0.0 | 0.0 | 0.00 | 0.00 | 0.00 | 94 | 1009.7 |
| 20260510070057 | 8 | 0 | 0.0 | 0.0 | 0.00 | 0.00 | 0.00 | 94 | 1009.7 |
| 20260510064554 | 8 | 0 | 0.0 | 0.0 | 0.00 | 0.00 | 0.00 | 94 | 1009.6 |
| 20260510063053 | 8 | 0 | 0.0 | 0.0 | 0.00 | 0.00 | 0.00 | 94 | 1009.6 |
| 20260510061555 | 8 | 0 | 0.0 | 0.0 | 0.00 | 0.00 | 0.00 | 93 | 1009.8 |
| 20260510060054 | 9 | 0 | 0.0 | 0.0 | 0.00 | 0.00 | 0.00 | 93 | 1009.7 |
| 20260510054551 | 9 | 0 | 0.0 | 0.0 | 0.00 | 0.00 | 0.00 | 93 | 1010.0 |
| 20260510053055 | 9 | 0 | 0.0 | 0.0 | 0.00 | 0.00 | 0.00 | 93 | 1010.1 |
| 20260510051559 | 9 | 0 | 0.0 | 0.0 | 0.00 | 0.00 | 0.00 | 93 | 1010.1 |
| 20260510050055 | 9 | 0 | 0.0 | 0.0 | 0.00 | 0.00 | 0.00 | 93 | 1010.1 |
| 20260510044557 | 9 | 0 | 0.0 | 0.0 | 0.00 | 0.00 | 0.00 | 93 | 1010.3 |
| 20260510043058 | 9 | 0 | 0.0 | 0.0 | 0.00 | 0.00 | 0.00 | 92 | 1010.3 |
| 20260510041601 | 10 | 0 | 0.0 | 0.0 | 0.00 | 0.00 | 0.00 | 93 | 1010.4 |
| 20260510040101 | 10 | 0 | 0.0 | 0.0 | 0.00 | 0.00 | 0.00 | 92 | 1010.4 |
| 20260510034552 | 10 | 0 | 0.0 | 0.0 | 0.00 | 0.00 | 0.00 | 92 | 1010.2 |
| 20260510033115 | 10 | 0 | 0.0 | 0.0 | 0.00 | 0.00 | 0.00 | 92 | 1010.2 |
| 20260510031553 | 10 | 0 | 0.0 | 0.0 | 0.00 | 0.00 | 0.00 | 92 | 1010.0 |
| 20260510030056 | 10 | 0 | 0.0 | 0.0 | 0.00 | 0.00 | 0.00 | 92 | 1010.1 |
| 20260510024605 | 10 | 0 | 0.0 | 0.0 | 0.00 | 0.00 | 0.00 | 92 | 1010.0 |
| 20260510023055 | 11 | 0 | 0.0 | 0.0 | 0.00 | 0.00 | 0.00 | 92 | 1010.0 |
| 20260510021553 | 11 | 0 | 0.0 | 0.0 | 0.00 | 0.00 | 0.00 | 91 | 1010.0 |
| 20260510020057 | 11 | 0 | 0.0 | 0.0 | 0.00 | 0.00 | 0.00 | 91 | 1009.9 |
| 20260510014553 | 11 | 0 | 0.0 | 0.0 | 0.00 | 0.00 | 0.00 | 91 | 1010.0 |
| 20260510013052 | 11 | 0 | 0.0 | 0.0 | 0.00 | 0.00 | 0.00 | 90 | 1010.1 |
| 20260510011555 | 11 | 0 | 0.0 | 0.0 | 0.00 | 0.00 | 0.00 | 90 | 1009.9 |
| 20260510010053 | 12 | 0 | 0.0 | 0.0 | 0.00 | 0.00 | 0.00 | 88 | 1009.8 |
| 20260510004556 | 12 | 0 | 0.0 | 0.0 | 0.00 | 0.00 | 0.00 | 88 | 1009.7 |
| 20260510003104 | 13 | 0 | 0.0 | 0.0 | 0.00 | 0.00 | 0.00 | 86 | 1009.6 |
| 20260510001556 | 13 | 0 | 0.0 | 0.0 | 0.00 | 0.00 | 0.00 | 84 | 1009.6 |
| 20260510000058 | 13 | 0 | 0.0 | 0.0 | 0.00 | 0.00 | 0.00 | 83 | 1009.6 |
| 20260509234606 | 14 | 0 | 0.0 | 3.2 | 0.00 | 0.00 | 0.00 | 82 | 1009.6 |
| 20260509233054 | 14 | 115 | 0.0 | 4.8 | 0.00 | 0.00 | 0.00 | 82 | 1009.3 |
| 20260509231601 | 15 | 121 | 1.6 | 8.0 | 0.00 | 0.00 | 0.00 | 81 | 1009.1 |
| 20260509230058 | 14 | 0 | 0.0 | 6.4 | 0.00 | 0.00 | 0.00 | 82 | 1009.1 |
| 20260509224559 | 15 | 96 | 0.0 | 6.4 | 0.00 | 0.00 | 0.00 | 82 | 1009.5 |
| 20260509223059 | 15 | 81 | 3.2 | 8.0 | 0.00 | 0.00 | 0.00 | 81 | 1009.4 |
| 20260509221555 | 15 | 77 | 0.0 | 4.8 | 0.00 | 0.00 | 0.00 | 80 | 1009.5 |